createdAt,value
2018-05-01T00:00:39.696Z,0.50
2018-05-01T00:03:07.343Z,0.50
2018-05-01T00:05:35.518Z,0.47
2018-05-01T00:08:03.166Z,0.30
2018-05-01T00:10:30.763Z,0.40
2018-05-01T00:12:58.423Z,0.40
2018-05-01T00:15:26.039Z,0.30
2018-05-01T00:17:53.678Z,0.40
2018-05-01T00:20:21.284Z,0.33
2018-05-01T00:22:48.927Z,0.50
2018-05-01T00:25:16.544Z,0.50
2018-05-01T00:27:44.183Z,0.50
2018-05-01T00:30:11.787Z,0.47
2018-05-01T00:32:39.475Z,0.30
2018-05-01T00:35:07.071Z,0.30
2018-05-01T00:37:34.719Z,0.60
2018-05-01T00:40:02.332Z,0.83
2018-05-01T00:42:29.975Z,0.50
2018-05-01T00:44:57.571Z,0.53
2018-05-01T00:47:25.214Z,0.60
2018-05-01T00:49:52.820Z,0.47
2018-05-01T00:52:32.409Z,0.50
2018-05-01T00:55:00.019Z,0.50
2018-05-01T00:57:27.666Z,0.40
2018-05-01T00:59:55.280Z,0.60
2018-05-01T01:02:22.923Z,0.80
2018-05-01T01:04:50.513Z,0.53
2018-05-01T01:07:18.223Z,0.50
2018-05-01T01:09:45.848Z,0.63
2018-05-01T01:12:13.489Z,0.87
2018-05-01T01:14:41.133Z,0.90
2018-05-01T01:17:08.788Z,0.70
2018-05-01T01:19:36.388Z,0.80
2018-05-01T01:22:04.027Z,0.80
2018-05-01T01:24:31.628Z,0.73
2018-05-01T01:26:59.289Z,0.67
2018-05-01T01:29:26.922Z,1.13
2018-05-01T01:31:54.633Z,1.07
2018-05-01T01:34:22.227Z,0.90
2018-05-01T01:36:49.339Z,0.77
2018-05-01T01:39:16.416Z,0.77
2018-05-01T01:41:43.527Z,0.83
2018-05-01T01:44:10.596Z,1.00
2018-05-01T01:46:37.711Z,0.70
2018-05-01T01:49:04.829Z,0.70
2018-05-01T01:51:31.934Z,0.83
2018-05-01T01:53:59.104Z,1.07
2018-05-01T01:56:26.210Z,0.80
2018-05-01T01:58:53.283Z,0.63
2018-05-01T02:01:20.398Z,0.40
2018-05-01T02:03:47.466Z,0.87
2018-05-01T02:06:15.135Z,0.60
2018-05-01T02:08:42.244Z,0.70
2018-05-01T02:11:09.321Z,0.57
2018-05-01T02:13:36.434Z,1.00
2018-05-01T02:16:03.505Z,0.63
2018-05-01T02:18:30.615Z,0.77
2018-05-01T02:20:57.703Z,0.63
2018-05-01T02:23:24.836Z,0.57
2018-05-01T02:25:51.900Z,0.60
2018-05-01T02:28:19.010Z,1.20
2018-05-01T02:30:46.088Z,0.80
2018-05-01T02:33:13.193Z,0.87
2018-05-01T02:35:41.088Z,1.20
2018-05-01T02:38:08.200Z,1.00
2018-05-01T02:40:35.278Z,1.10
2018-05-01T02:43:02.380Z,0.90
2018-05-01T02:45:29.444Z,1.00
2018-05-01T02:47:56.556Z,1.30
2018-05-01T02:50:23.644Z,1.60
2018-05-01T02:52:50.759Z,1.00
2018-05-01T02:55:17.827Z,1.07
2018-05-01T02:57:44.957Z,1.40
2018-05-01T03:00:12.058Z,0.80
2018-05-01T03:02:39.180Z,1.20
2018-05-01T03:05:06.258Z,1.07
2018-05-01T03:07:33.328Z,1.03
2018-05-01T03:10:00.436Z,0.83
2018-05-01T03:12:27.498Z,0.93
2018-05-01T03:14:54.598Z,1.10
2018-05-01T03:17:21.673Z,1.30
2018-05-01T03:19:48.779Z,1.10
2018-05-01T03:22:15.845Z,1.20
2018-05-01T03:24:42.957Z,1.17
2018-05-01T03:27:10.039Z,1.50
2018-05-01T03:29:37.155Z,1.33
2018-05-01T03:32:04.246Z,1.10
2018-05-01T03:34:31.371Z,1.23
2018-05-01T03:36:58.430Z,1.20
2018-05-01T03:39:25.533Z,1.20
2018-05-01T03:41:52.603Z,1.17
2018-05-01T03:44:19.714Z,1.70
2018-05-01T03:46:46.783Z,1.60
2018-05-01T03:49:13.888Z,1.10
2018-05-01T03:51:40.968Z,1.00
2018-05-01T03:54:08.087Z,1.60
2018-05-01T03:56:35.181Z,1.43
2018-05-01T03:59:02.258Z,0.97
2018-05-01T04:01:29.373Z,1.00
2018-05-01T04:03:56.438Z,1.50
2018-05-01T04:06:23.546Z,0.87
2018-05-01T04:08:50.637Z,1.30
2018-05-01T04:11:17.735Z,1.10
2018-05-01T04:13:45.740Z,1.10
2018-05-01T04:16:12.850Z,0.90
2018-05-01T04:18:39.919Z,1.13
2018-05-01T04:21:07.027Z,1.27
2018-05-01T04:23:34.114Z,0.87
2018-05-01T04:26:01.210Z,0.73
2018-05-01T04:28:28.291Z,0.90
2018-05-01T04:30:55.397Z,1.07
2018-05-01T04:33:22.451Z,0.77
2018-05-01T04:35:49.581Z,1.10
2018-05-01T04:38:16.654Z,0.83
2018-05-01T04:40:43.769Z,1.27
2018-05-01T04:43:10.842Z,0.73
2018-05-01T04:45:37.958Z,0.53
2018-05-01T04:48:05.074Z,0.80
2018-05-01T04:50:32.146Z,0.60
2018-05-01T04:52:59.251Z,0.90
2018-05-01T04:55:26.368Z,0.70
2018-05-01T04:57:53.481Z,0.90
2018-05-01T05:00:20.546Z,0.97
2018-05-01T05:02:47.667Z,0.43
2018-05-01T05:05:14.753Z,0.80
2018-05-01T05:07:41.858Z,0.80
2018-05-01T05:10:08.927Z,0.60
2018-05-01T05:12:36.036Z,0.70
2018-05-01T05:15:03.102Z,0.70
2018-05-01T05:17:30.216Z,0.90
2018-05-01T05:19:57.283Z,0.40
2018-05-01T05:22:24.399Z,0.80
2018-05-01T05:24:51.479Z,0.90
2018-05-01T05:27:18.606Z,0.50
2018-05-01T05:29:45.669Z,0.90
2018-05-01T05:32:12.782Z,1.10
2018-05-01T05:34:39.887Z,0.90
2018-05-01T05:37:07.004Z,0.70
2018-05-01T05:39:34.067Z,0.80
2018-05-01T05:42:01.181Z,0.70
2018-05-01T05:44:28.247Z,0.97
2018-05-01T05:46:55.312Z,0.60
2018-05-01T05:49:22.463Z,0.50
2018-05-01T05:51:49.531Z,0.60
2018-05-01T05:54:16.647Z,0.80
2018-05-01T05:56:43.719Z,0.50
2018-05-01T05:59:10.836Z,0.50
2018-05-01T06:01:37.907Z,0.50
2018-05-01T06:04:05.004Z,0.70
2018-05-01T06:06:32.088Z,0.97
2018-05-01T06:08:59.194Z,0.60
2018-05-01T06:11:26.283Z,0.60
2018-05-01T06:13:53.385Z,0.60
2018-05-01T06:16:20.483Z,0.70
2018-05-01T06:18:47.606Z,0.80
2018-05-01T06:21:14.678Z,0.60
2018-05-01T06:23:41.792Z,0.80
2018-05-01T06:26:08.861Z,0.60
2018-05-01T06:28:35.974Z,0.70
2018-05-01T06:31:03.058Z,0.67
2018-05-01T06:33:30.171Z,0.60
2018-05-01T06:35:57.270Z,0.50
2018-05-01T06:38:24.377Z,0.50
2018-05-01T06:40:51.460Z,0.40
2018-05-01T06:43:18.563Z,0.50
2018-05-01T06:45:45.633Z,0.40
2018-05-01T06:48:12.741Z,0.60
2018-05-01T06:50:39.885Z,0.53
2018-05-01T06:53:06.973Z,0.60
2018-05-01T06:55:34.071Z,0.40
2018-05-01T06:58:01.187Z,0.40
2018-05-01T07:00:28.267Z,0.80
2018-05-01T07:02:55.401Z,0.50
2018-05-01T07:05:22.478Z,0.50
2018-05-01T07:07:49.588Z,0.53
2018-05-01T07:10:16.733Z,0.50
2018-05-01T07:12:43.869Z,0.60
2018-05-01T07:15:10.981Z,0.70
2018-05-01T07:17:38.060Z,0.57
2018-05-01T07:20:05.174Z,0.93
2018-05-01T07:22:32.256Z,0.80
2018-05-01T07:24:59.426Z,0.50
2018-05-01T07:27:26.594Z,0.77
2018-05-01T07:29:53.646Z,0.80
2018-05-01T07:32:20.709Z,0.80
2018-05-01T07:34:47.831Z,0.83
2018-05-01T07:37:14.915Z,0.60
2018-05-01T07:39:42.067Z,0.60
2018-05-01T07:42:09.136Z,0.50
2018-05-01T07:44:36.251Z,0.60
2018-05-01T07:47:03.326Z,0.83
2018-05-01T07:49:30.464Z,0.70
2018-05-01T07:51:57.544Z,0.63
2018-05-01T07:54:24.646Z,0.70
2018-05-01T07:56:51.763Z,0.80
2018-05-01T07:59:18.861Z,0.97
2018-05-01T08:01:45.983Z,0.77
2018-05-01T08:04:13.058Z,0.80
2018-05-01T08:06:40.208Z,1.20
2018-05-01T08:09:07.286Z,0.83
2018-05-01T08:11:34.410Z,1.20
2018-05-01T08:14:01.491Z,1.00
2018-05-01T08:16:28.605Z,1.10
2018-05-01T08:18:55.702Z,1.00
2018-05-01T08:21:22.814Z,1.03
2018-05-01T08:23:49.906Z,1.40
2018-05-01T08:26:17.004Z,1.50
2018-05-01T08:28:44.072Z,1.20
2018-05-01T08:31:11.204Z,0.73
2018-05-01T08:33:38.288Z,1.00
2018-05-01T08:36:05.407Z,0.80
2018-05-01T08:38:32.500Z,1.10
2018-05-01T08:40:59.615Z,1.17
2018-05-01T08:43:26.733Z,0.87
2018-05-01T08:45:53.818Z,2.53
2018-05-01T08:48:20.942Z,1.60
2018-05-01T08:50:48.008Z,1.30
2018-05-01T08:53:15.122Z,1.10
2018-05-01T08:55:42.193Z,1.40
2018-05-01T08:58:09.304Z,1.40
2018-05-01T09:00:36.372Z,0.90
2018-05-01T09:03:03.496Z,1.30
2018-05-01T09:05:30.606Z,1.50
2018-05-01T09:07:58.621Z,1.20
2018-05-01T09:10:25.701Z,1.20
2018-05-01T09:12:52.819Z,1.40
2018-05-01T09:15:19.890Z,1.23
2018-05-01T09:17:47.022Z,1.40
2018-05-01T09:20:14.152Z,1.40
2018-05-01T09:22:41.266Z,1.20
2018-05-01T09:25:08.338Z,1.30
2018-05-01T09:27:36.339Z,1.30
2018-05-01T09:30:03.412Z,1.07
2018-05-01T09:32:30.528Z,1.53
2018-05-01T09:34:57.595Z,1.30
2018-05-01T09:37:24.704Z,1.40
2018-05-01T09:39:51.819Z,1.20
2018-05-01T09:42:18.893Z,1.10
2018-05-01T09:44:46.008Z,1.30
2018-05-01T09:47:13.088Z,1.30
2018-05-01T09:49:40.194Z,1.73
2018-05-01T09:52:07.268Z,1.30
2018-05-01T09:54:34.924Z,1.17
2018-05-01T09:57:02.539Z,1.33
2018-05-01T09:59:30.197Z,1.40
2018-05-01T10:01:57.815Z,1.40
2018-05-01T10:04:25.503Z,1.00
2018-05-01T10:06:53.142Z,1.27
2018-05-01T10:09:20.801Z,1.10
2018-05-01T10:11:48.423Z,1.13
2018-05-01T10:14:16.065Z,1.40
2018-05-01T10:16:43.692Z,2.07
2018-05-01T10:19:11.384Z,1.20
2018-05-01T10:21:38.994Z,1.30
2018-05-01T10:24:07.193Z,1.63
2018-05-01T10:26:34.799Z,1.33
2018-05-01T10:29:02.507Z,1.60
2018-05-01T10:31:30.143Z,1.60
2018-05-01T10:33:57.839Z,1.80
2018-05-01T10:36:25.450Z,1.40
2018-05-01T10:38:53.111Z,1.30
2018-05-01T10:41:20.753Z,1.40
2018-05-01T10:43:48.369Z,1.60
2018-05-01T10:46:16.025Z,1.27
2018-05-01T10:48:43.692Z,2.03
2018-05-01T10:51:11.357Z,1.60
2018-05-01T10:53:38.967Z,1.33
2018-05-01T10:56:06.621Z,1.70
2018-05-01T10:58:34.243Z,1.50
2018-05-01T11:01:01.902Z,1.40
2018-05-01T11:03:29.540Z,1.70
2018-05-01T11:05:57.213Z,1.60
2018-05-01T11:08:24.891Z,1.33
2018-05-01T11:10:52.539Z,2.07
2018-05-01T11:13:20.152Z,2.10
2018-05-01T11:15:47.830Z,1.93
2018-05-01T11:18:15.443Z,1.83
2018-05-01T11:20:43.095Z,1.90
2018-05-01T11:23:10.712Z,1.80
2018-05-01T11:25:38.366Z,2.43
2018-05-01T11:28:05.978Z,2.10
2018-05-01T11:30:33.585Z,1.93
2018-05-01T11:33:01.302Z,1.40
2018-05-01T11:35:28.927Z,1.87
2018-05-01T11:37:56.632Z,1.63
2018-05-01T11:40:24.245Z,2.20
2018-05-01T11:42:51.910Z,1.80
2018-05-01T11:45:19.571Z,1.70
2018-05-01T11:47:47.229Z,2.50
2018-05-01T11:50:14.833Z,2.20
2018-05-01T11:52:42.496Z,2.67
2018-05-01T11:55:10.109Z,2.00
2018-05-01T11:57:37.754Z,2.30
2018-05-01T12:00:05.377Z,1.80
2018-05-01T12:02:33.051Z,2.00
2018-05-01T12:05:00.662Z,2.00
2018-05-01T12:07:28.328Z,2.80
2018-05-01T12:09:55.934Z,2.17
2018-05-01T12:12:23.586Z,2.93
2018-05-01T12:14:51.196Z,2.23
2018-05-01T12:17:18.801Z,2.77
2018-05-01T12:19:46.475Z,2.30
2018-05-01T12:22:14.088Z,2.10
2018-05-01T12:24:41.742Z,2.80
2018-05-01T12:27:09.366Z,2.20
2018-05-01T12:29:37.029Z,2.20
2018-05-01T12:32:04.645Z,2.87
2018-05-01T12:34:32.305Z,2.10
2018-05-01T12:37:00.032Z,2.83
2018-05-01T12:39:27.607Z,2.30
2018-05-01T12:41:55.230Z,2.20
2018-05-01T12:44:22.933Z,2.70
2018-05-01T12:46:50.553Z,2.27
2018-05-01T12:49:18.219Z,2.43
2018-05-01T12:51:45.830Z,2.47
2018-05-01T12:54:13.491Z,2.20
2018-05-01T12:56:41.117Z,2.80
2018-05-01T12:59:08.794Z,2.70
2018-05-01T13:01:36.460Z,2.80
2018-05-01T13:04:04.111Z,2.17
2018-05-01T13:06:31.730Z,2.30
2018-05-01T13:08:59.390Z,3.00
2018-05-01T13:11:27.035Z,2.73
2018-05-01T13:13:54.687Z,2.10
2018-05-01T13:16:22.320Z,2.23
2018-05-01T13:18:49.963Z,1.33
2018-05-01T13:21:17.580Z,1.90
2018-05-01T13:23:45.222Z,2.37
2018-05-01T13:26:12.866Z,3.07
2018-05-01T13:28:40.474Z,2.13
2018-05-01T13:31:08.134Z,2.77
2018-05-01T13:33:35.748Z,1.80
2018-05-01T13:36:03.394Z,2.87
2018-05-01T13:38:31.017Z,2.10
2018-05-01T13:40:58.674Z,2.50
2018-05-01T13:43:26.724Z,2.17
2018-05-01T13:45:54.378Z,2.60
2018-05-01T13:48:22.012Z,2.20
2018-05-01T13:50:49.654Z,2.67
2018-05-01T13:53:17.307Z,2.43
2018-05-01T13:55:44.972Z,2.13
2018-05-01T13:58:12.596Z,2.23
2018-05-01T14:00:40.243Z,2.50
2018-05-01T14:03:07.893Z,1.90
2018-05-01T14:05:35.544Z,2.50
2018-05-01T14:08:03.165Z,2.20
2018-05-01T14:10:30.816Z,1.90
2018-05-01T14:12:58.439Z,2.70
2018-05-01T14:15:26.106Z,1.77
2018-05-01T14:17:53.727Z,1.97
2018-05-01T14:20:21.383Z,2.07
2018-05-01T14:22:49.012Z,2.20
2018-05-01T14:25:16.659Z,1.87
2018-05-01T14:27:44.299Z,2.80
2018-05-01T14:30:11.967Z,2.27
2018-05-01T14:32:39.587Z,2.57
2018-05-01T14:35:07.236Z,2.33
2018-05-01T14:37:34.871Z,2.00
2018-05-01T14:40:02.605Z,1.60
2018-05-01T14:42:30.211Z,2.23
2018-05-01T14:44:57.875Z,1.80
2018-05-01T14:47:25.980Z,2.20
2018-05-01T14:49:53.939Z,1.87
2018-05-01T14:52:21.580Z,1.90
2018-05-01T14:54:49.500Z,2.20
2018-05-01T14:57:17.134Z,2.13
2018-05-01T14:59:44.823Z,2.20
2018-05-01T15:02:12.434Z,2.30
2018-05-01T15:04:40.151Z,1.97
2018-05-01T15:07:08.203Z,2.30
2018-05-01T15:09:35.995Z,2.17
2018-05-01T15:12:03.608Z,1.70
2018-05-01T15:14:31.263Z,1.60
2018-05-01T15:16:58.886Z,1.77
2018-05-01T15:19:26.659Z,1.87
2018-05-01T15:21:54.203Z,2.13
2018-05-01T15:24:21.899Z,2.00
2018-05-01T15:26:49.518Z,1.70
2018-05-01T15:29:17.188Z,1.93
2018-05-01T15:31:44.801Z,1.67
2018-05-01T15:34:12.477Z,2.30
2018-05-01T15:36:40.331Z,1.80
2018-05-01T15:39:08.185Z,2.00
2018-05-01T15:41:35.886Z,1.87
2018-05-01T15:44:03.515Z,1.87
2018-05-01T15:46:31.167Z,3.00
2018-05-01T15:48:58.793Z,2.27
2018-05-01T15:51:26.531Z,1.77
2018-05-01T15:53:54.496Z,2.10
2018-05-01T15:56:22.313Z,1.50
2018-05-01T15:58:50.464Z,2.10
2018-05-01T16:01:18.159Z,2.20
2018-05-01T16:03:45.778Z,1.90
2018-05-01T16:06:13.427Z,1.97
2018-05-01T16:08:41.070Z,1.83
2018-05-01T16:11:08.718Z,1.73
2018-05-01T16:13:36.323Z,1.70
2018-05-01T16:16:04.007Z,1.80
2018-05-01T16:18:31.775Z,2.20
2018-05-01T16:20:59.468Z,1.93
2018-05-01T16:23:27.091Z,1.60
2018-05-01T16:25:54.759Z,1.73
2018-05-01T16:28:22.380Z,1.50
2018-05-01T16:30:50.051Z,1.47
2018-05-01T16:33:17.716Z,1.60
2018-05-01T16:35:45.367Z,1.90
2018-05-01T16:38:13.010Z,1.70
2018-05-01T16:40:40.668Z,2.00
2018-05-01T16:43:08.285Z,2.10
2018-05-01T16:45:35.943Z,1.90
2018-05-01T16:48:03.603Z,1.97
2018-05-01T16:50:31.266Z,1.50
2018-05-01T16:52:58.899Z,1.83
2018-05-01T16:55:26.543Z,1.80
2018-05-01T16:57:54.159Z,1.80
2018-05-01T17:00:21.807Z,1.90
2018-05-01T17:02:49.420Z,1.83
2018-05-01T17:05:17.076Z,2.13
2018-05-01T17:07:44.694Z,4.43
2018-05-01T17:10:12.373Z,1.57
2018-05-01T17:12:39.984Z,2.07
2018-05-01T17:15:07.647Z,2.10
2018-05-01T17:17:35.271Z,2.10
2018-05-01T17:20:02.930Z,2.10
2018-05-01T17:22:31.106Z,3.70
2018-05-01T17:24:58.802Z,1.97
2018-05-01T17:27:26.455Z,2.27
2018-05-01T17:29:54.114Z,1.90
2018-05-01T17:32:21.734Z,2.20
2018-05-01T17:34:49.459Z,1.87
2018-05-01T17:37:17.035Z,1.80
2018-05-01T17:39:44.694Z,2.23
2018-05-01T17:42:12.339Z,1.63
2018-05-01T17:44:40.248Z,1.40
2018-05-01T17:47:07.904Z,1.70
2018-05-01T17:49:35.509Z,1.50
2018-05-01T17:52:03.154Z,1.30
2018-05-01T17:54:30.788Z,1.40
2018-05-01T17:56:58.475Z,1.33
2018-05-01T17:59:26.109Z,1.70
2018-05-01T18:01:53.764Z,1.53
2018-05-01T18:04:21.412Z,2.67
2018-05-01T18:06:49.411Z,1.70
2018-05-01T18:09:17.026Z,1.53
2018-05-01T18:11:44.686Z,1.73
2018-05-01T18:14:12.319Z,1.63
2018-05-01T18:16:40.206Z,1.47
2018-05-01T18:19:07.815Z,1.70
2018-05-01T18:21:35.509Z,1.40
2018-05-01T18:24:03.159Z,1.50
2018-05-01T18:26:30.826Z,2.73
2018-05-01T18:28:58.476Z,3.90
2018-05-01T18:31:26.129Z,3.50
2018-05-01T18:33:53.743Z,2.87
2018-05-01T18:36:21.431Z,2.60
2018-05-01T18:38:49.043Z,1.60
2018-05-01T18:41:16.708Z,1.90
2018-05-01T18:43:44.322Z,1.80
2018-05-01T18:46:11.986Z,1.83
2018-05-01T18:48:39.625Z,1.60
2018-05-01T18:51:07.284Z,2.70
2018-05-01T18:53:34.919Z,1.47
2018-05-01T18:56:02.573Z,2.67
2018-05-01T18:58:30.200Z,3.50
2018-05-01T19:00:57.871Z,3.07
2018-05-01T19:03:25.482Z,2.43
2018-05-01T19:05:53.137Z,2.13
2018-05-01T19:08:20.762Z,2.33
2018-05-01T19:10:48.422Z,2.10
2018-05-01T19:13:16.026Z,2.27
2018-05-01T19:15:43.677Z,1.90
2018-05-01T19:18:11.304Z,2.47
2018-05-01T19:20:38.962Z,2.00
2018-05-01T19:23:06.632Z,2.33
2018-05-01T19:25:34.297Z,2.10
2018-05-01T19:28:01.914Z,2.23
2018-05-01T19:30:29.576Z,2.33
2018-05-01T19:32:57.230Z,2.20
2018-05-01T19:35:24.904Z,2.23
2018-05-01T19:37:52.507Z,2.37
2018-05-01T19:40:20.168Z,2.20
2018-05-01T19:42:47.790Z,1.60
2018-05-01T19:45:15.471Z,2.17
2018-05-01T19:47:43.105Z,2.40
2018-05-01T19:50:10.731Z,1.70
2018-05-01T19:52:38.399Z,1.90
2018-05-01T19:55:06.033Z,2.20
2018-05-01T19:57:33.839Z,1.73
2018-05-01T20:00:01.475Z,2.20
2018-05-01T20:02:29.165Z,2.20
2018-05-01T20:04:56.811Z,2.00
2018-05-01T20:07:24.496Z,1.60
2018-05-01T20:09:52.130Z,1.80
2018-05-01T20:12:19.787Z,1.60
2018-05-01T20:14:47.411Z,2.00
2018-05-01T20:17:15.061Z,1.80
2018-05-01T20:19:42.687Z,2.20
2018-05-01T20:22:10.374Z,1.90
2018-05-01T20:24:37.982Z,1.80
2018-05-01T20:27:05.636Z,1.90
2018-05-01T20:29:33.246Z,1.53
2018-05-01T20:32:00.926Z,1.90
2018-05-01T20:34:28.551Z,1.87
2018-05-01T20:36:56.591Z,1.43
2018-05-01T20:39:24.216Z,1.93
2018-05-01T20:41:51.880Z,1.90
2018-05-01T20:44:19.589Z,1.93
2018-05-01T20:46:47.247Z,1.90
2018-05-01T20:49:14.863Z,1.80
2018-05-01T20:51:42.588Z,1.37
2018-05-01T20:54:10.200Z,2.57
2018-05-01T20:56:38.140Z,2.60
2018-05-01T20:59:05.743Z,1.30
2018-05-01T21:01:33.391Z,2.50
2018-05-01T21:04:01.039Z,2.03
2018-05-01T21:06:28.691Z,2.23
2018-05-01T21:08:56.319Z,2.07
2018-05-01T21:11:23.978Z,2.83
2018-05-01T21:13:51.612Z,2.57
2018-05-01T21:16:19.272Z,2.20
2018-05-01T21:18:47.055Z,2.27
2018-05-01T21:21:14.710Z,2.00
2018-05-01T21:23:42.318Z,2.10
2018-05-01T21:26:09.974Z,1.60
2018-05-01T21:28:37.603Z,1.50
2018-05-01T21:31:05.266Z,2.10
2018-05-01T21:33:33.073Z,2.00
2018-05-01T21:36:00.728Z,2.27
2018-05-01T21:38:28.348Z,1.60
2018-05-01T21:40:56.000Z,2.10
2018-05-01T21:43:23.616Z,1.80
2018-05-01T21:45:51.281Z,2.30
2018-05-01T21:48:18.910Z,2.10
2018-05-01T21:50:46.564Z,2.83
2018-05-01T21:53:14.179Z,2.40
2018-05-01T21:55:41.786Z,1.87
2018-05-01T21:58:09.462Z,2.07
2018-05-01T22:00:37.071Z,2.13
2018-05-01T22:03:04.802Z,1.90
2018-05-01T22:05:32.461Z,2.00
2018-05-01T22:08:00.107Z,2.00
2018-05-01T22:10:27.722Z,1.50
2018-05-01T22:12:55.378Z,1.97
2018-05-01T22:15:23.008Z,2.00
2018-05-01T22:17:50.692Z,1.73
2018-05-01T22:20:18.332Z,1.90
2018-05-01T22:22:45.984Z,2.30
2018-05-01T22:25:13.654Z,2.23
2018-05-01T22:27:41.322Z,2.30
2018-05-01T22:30:08.947Z,2.47
2018-05-01T22:32:36.612Z,3.00
2018-05-01T22:35:04.242Z,1.93
2018-05-01T22:37:31.921Z,2.53
2018-05-01T22:39:59.530Z,2.23
2018-05-01T22:42:27.191Z,2.40
2018-05-01T22:44:54.820Z,1.90
2018-05-01T22:47:22.465Z,2.37
2018-05-01T22:49:50.074Z,2.20
2018-05-01T22:52:17.724Z,2.27
2018-05-01T22:54:45.348Z,2.37
2018-05-01T22:57:13.012Z,1.80
2018-05-01T22:59:40.606Z,2.03
2018-05-01T23:02:08.249Z,1.90
2018-05-01T23:04:35.856Z,1.97
2018-05-01T23:07:03.579Z,1.87
2018-05-01T23:09:31.178Z,2.53
2018-05-01T23:11:58.820Z,2.67
2018-05-01T23:14:26.452Z,2.50
2018-05-01T23:16:54.101Z,2.43
2018-05-01T23:19:21.716Z,3.27
2018-05-01T23:21:49.391Z,2.93
2018-05-01T23:24:17.006Z,3.47
2018-05-01T23:26:44.655Z,3.17
2018-05-01T23:29:12.255Z,3.53
2018-05-01T23:31:39.898Z,3.80
2018-05-01T23:34:07.506Z,2.20
2018-05-01T23:36:35.188Z,1.90
2018-05-01T23:39:02.801Z,2.10
2018-05-01T23:41:30.456Z,1.97
2018-05-01T23:43:58.099Z,2.30
2018-05-01T23:46:25.753Z,2.10
2018-05-01T23:48:53.360Z,2.00
2018-05-01T23:51:21.028Z,2.33
2018-05-01T23:53:48.642Z,2.00
2018-05-01T23:56:16.287Z,2.20
2018-05-01T23:58:43.891Z,2.10
